sensor_id;sensor_type;location;lat;lon;timestamp;P1;durP1;ratioP1;P2;durP2;ratioP2
57217;SDS011;43078;52.972;6.482;2023-07-29T00:02:05;8.13;;;3.80;;
57217;SDS011;43078;52.972;6.482;2023-07-29T00:04:30;6.88;;;3.72;;
57217;SDS011;43078;52.972;6.482;2023-07-29T00:06:56;9.15;;;5.18;;
57217;SDS011;43078;52.972;6.482;2023-07-29T00:09:22;7.32;;;4.07;;
57217;SDS011;43078;52.972;6.482;2023-07-29T00:11:47;9.75;;;4.57;;
57217;SDS011;43078;52.972;6.482;2023-07-29T00:14:13;7.80;;;4.40;;
57217;SDS011;43078;52.972;6.482;2023-07-29T00:16:39;8.73;;;4.53;;
57217;SDS011;43078;52.972;6.482;2023-07-29T00:19:06;7.60;;;4.00;;
57217;SDS011;43078;52.972;6.482;2023-07-29T00:21:31;8.68;;;4.00;;
57217;SDS011;43078;52.972;6.482;2023-07-29T00:23:57;8.07;;;3.85;;
57217;SDS011;43078;52.972;6.482;2023-07-29T00:26:23;6.30;;;3.83;;
57217;SDS011;43078;52.972;6.482;2023-07-29T00:28:51;6.57;;;3.72;;
57217;SDS011;43078;52.972;6.482;2023-07-29T00:31:16;5.25;;;3.53;;
57217;SDS011;43078;52.972;6.482;2023-07-29T00:33:42;7.38;;;4.35;;
57217;SDS011;43078;52.972;6.482;2023-07-29T00:36:08;6.63;;;4.40;;
57217;SDS011;43078;52.972;6.482;2023-07-29T00:38:34;6.55;;;4.15;;
57217;SDS011;43078;52.972;6.482;2023-07-29T00:41:02;6.25;;;4.20;;
57217;SDS011;43078;52.972;6.482;2023-07-29T00:43:29;6.53;;;4.30;;
57217;SDS011;43078;52.972;6.482;2023-07-29T00:45:59;7.32;;;4.68;;
57217;SDS011;43078;52.972;6.482;2023-07-29T00:48:26;7.25;;;4.88;;
57217;SDS011;43078;52.972;6.482;2023-07-29T00:50:54;7.00;;;4.47;;
57217;SDS011;43078;52.972;6.482;2023-07-29T00:53:19;5.82;;;3.97;;
57217;SDS011;43078;52.972;6.482;2023-07-29T00:55:45;10.13;;;4.40;;
57217;SDS011;43078;52.972;6.482;2023-07-29T00:58:11;6.75;;;4.65;;
57217;SDS011;43078;52.972;6.482;2023-07-29T01:00:37;6.43;;;4.38;;
57217;SDS011;43078;52.972;6.482;2023-07-29T01:03:03;6.45;;;4.20;;
57217;SDS011;43078;52.972;6.482;2023-07-29T01:05:32;6.50;;;4.25;;
57217;SDS011;43078;52.972;6.482;2023-07-29T01:08:14;7.03;;;4.20;;
57217;SDS011;43078;52.972;6.482;2023-07-29T01:14:54;8.20;;;4.43;;
57217;SDS011;43078;52.972;6.482;2023-07-29T01:16:52;6.88;;;4.18;;
57217;SDS011;43078;52.972;6.482;2023-07-29T01:19:35;7.20;;;4.40;;
57217;SDS011;43078;52.972;6.482;2023-07-29T01:22:16;6.30;;;3.65;;
57217;SDS011;43078;52.972;6.482;2023-07-29T01:24:42;7.82;;;4.55;;
57217;SDS011;43078;52.972;6.482;2023-07-29T01:27:08;6.35;;;4.40;;
57217;SDS011;43078;52.972;6.482;2023-07-29T01:29:34;6.25;;;4.40;;
57217;SDS011;43078;52.972;6.482;2023-07-29T01:32:01;6.70;;;4.05;;
57217;SDS011;43078;52.972;6.482;2023-07-29T01:34:41;6.85;;;4.30;;
57217;SDS011;43078;52.972;6.482;2023-07-29T01:37:15;6.03;;;4.40;;
57217;SDS011;43078;52.972;6.482;2023-07-29T01:39:47;7.15;;;4.32;;
57217;SDS011;43078;52.972;6.482;2023-07-29T01:42:14;6.13;;;4.45;;
57217;SDS011;43078;52.972;6.482;2023-07-29T01:44:40;9.20;;;4.20;;
57217;SDS011;43078;52.972;6.482;2023-07-29T01:47:07;8.23;;;4.05;;
57217;SDS011;43078;52.972;6.482;2023-07-29T01:49:33;9.00;;;4.53;;
57217;SDS011;43078;52.972;6.482;2023-07-29T01:51:59;7.72;;;4.28;;
57217;SDS011;43078;52.972;6.482;2023-07-29T01:54:25;10.32;;;4.53;;
57217;SDS011;43078;52.972;6.482;2023-07-29T01:56:50;8.38;;;4.63;;
57217;SDS011;43078;52.972;6.482;2023-07-29T01:59:16;7.85;;;4.50;;
57217;SDS011;43078;52.972;6.482;2023-07-29T02:01:42;9.38;;;4.32;;
57217;SDS011;43078;52.972;6.482;2023-07-29T02:04:08;8.15;;;4.50;;
57217;SDS011;43078;52.972;6.482;2023-07-29T02:06:33;7.88;;;4.22;;
57217;SDS011;43078;52.972;6.482;2023-07-29T02:08:59;7.70;;;4.30;;
57217;SDS011;43078;52.972;6.482;2023-07-29T02:11:32;7.22;;;4.30;;
57217;SDS011;43078;52.972;6.482;2023-07-29T02:13:57;7.38;;;4.63;;
57217;SDS011;43078;52.972;6.482;2023-07-29T02:16:23;7.70;;;4.57;;
57217;SDS011;43078;52.972;6.482;2023-07-29T02:18:49;7.63;;;4.32;;
57217;SDS011;43078;52.972;6.482;2023-07-29T02:21:15;6.05;;;4.03;;
57217;SDS011;43078;52.972;6.482;2023-07-29T02:23:41;7.00;;;3.90;;
57217;SDS011;43078;52.972;6.482;2023-07-29T02:26:06;7.88;;;3.97;;
57217;SDS011;43078;52.972;6.482;2023-07-29T02:28:32;6.90;;;3.85;;
57217;SDS011;43078;52.972;6.482;2023-07-29T02:31:17;5.82;;;3.90;;
57217;SDS011;43078;52.972;6.482;2023-07-29T02:33:45;6.22;;;3.90;;
57217;SDS011;43078;52.972;6.482;2023-07-29T02:36:11;8.15;;;4.15;;
57217;SDS011;43078;52.972;6.482;2023-07-29T02:38:38;7.75;;;4.28;;
57217;SDS011;43078;52.972;6.482;2023-07-29T02:41:04;6.13;;;4.15;;
57217;SDS011;43078;52.972;6.482;2023-07-29T02:43:30;6.07;;;4.07;;
57217;SDS011;43078;52.972;6.482;2023-07-29T02:45:56;8.60;;;4.20;;
57217;SDS011;43078;52.972;6.482;2023-07-29T02:48:21;7.88;;;4.15;;
57217;SDS011;43078;52.972;6.482;2023-07-29T02:50:47;6.95;;;4.55;;
57217;SDS011;43078;52.972;6.482;2023-07-29T02:53:13;7.45;;;4.10;;
57217;SDS011;43078;52.972;6.482;2023-07-29T02:55:41;6.68;;;3.78;;
57217;SDS011;43078;52.972;6.482;2023-07-29T02:58:07;9.45;;;4.15;;
57217;SDS011;43078;52.972;6.482;2023-07-29T03:00:33;8.35;;;4.18;;
57217;SDS011;43078;52.972;6.482;2023-07-29T03:02:59;7.53;;;4.05;;
57217;SDS011;43078;52.972;6.482;2023-07-29T03:05:27;8.55;;;4.22;;
57217;SDS011;43078;52.972;6.482;2023-07-29T03:07:52;6.85;;;3.80;;
57217;SDS011;43078;52.972;6.482;2023-07-29T03:10:18;6.40;;;3.75;;
57217;SDS011;43078;52.972;6.482;2023-07-29T03:12:44;7.05;;;3.83;;
57217;SDS011;43078;52.972;6.482;2023-07-29T03:15:09;5.30;;;3.70;;
57217;SDS011;43078;52.972;6.482;2023-07-29T03:17:36;7.13;;;3.63;;
57217;SDS011;43078;52.972;6.482;2023-07-29T03:20:02;8.02;;;3.78;;
57217;SDS011;43078;52.972;6.482;2023-07-29T03:22:28;7.28;;;3.33;;
57217;SDS011;43078;52.972;6.482;2023-07-29T03:24:53;6.18;;;3.55;;
57217;SDS011;43078;52.972;6.482;2023-07-29T03:27:19;5.82;;;3.42;;
57217;SDS011;43078;52.972;6.482;2023-07-29T03:29:44;7.35;;;3.50;;
57217;SDS011;43078;52.972;6.482;2023-07-29T03:32:10;6.72;;;3.53;;
57217;SDS011;43078;52.972;6.482;2023-07-29T03:34:36;6.57;;;3.15;;
57217;SDS011;43078;52.972;6.482;2023-07-29T03:37:02;6.93;;;3.30;;
57217;SDS011;43078;52.972;6.482;2023-07-29T03:39:28;4.90;;;3.17;;
57217;SDS011;43078;52.972;6.482;2023-07-29T03:41:56;5.40;;;3.50;;
57217;SDS011;43078;52.972;6.482;2023-07-29T03:44:22;5.68;;;3.30;;
57217;SDS011;43078;52.972;6.482;2023-07-29T03:46:49;6.88;;;3.28;;
57217;SDS011;43078;52.972;6.482;2023-07-29T03:49:15;6.38;;;3.35;;
57217;SDS011;43078;52.972;6.482;2023-07-29T03:51:40;5.53;;;3.20;;
57217;SDS011;43078;52.972;6.482;2023-07-29T03:54:06;6.70;;;3.22;;
57217;SDS011;43078;52.972;6.482;2023-07-29T03:56:32;6.22;;;3.63;;
57217;SDS011;43078;52.972;6.482;2023-07-29T03:59:04;6.18;;;3.03;;
57217;SDS011;43078;52.972;6.482;2023-07-29T04:03:56;6.28;;;3.28;;
57217;SDS011;43078;52.972;6.482;2023-07-29T04:06:22;6.47;;;3.20;;
57217;SDS011;43078;52.972;6.482;2023-07-29T04:08:48;6.13;;;3.13;;
57217;SDS011;43078;52.972;6.482;2023-07-29T04:11:14;6.22;;;3.58;;
57217;SDS011;43078;52.972;6.482;2023-07-29T04:13:40;5.38;;;3.22;;
57217;SDS011;43078;52.972;6.482;2023-07-29T04:16:06;6.15;;;3.40;;
57217;SDS011;43078;52.972;6.482;2023-07-29T04:18:32;5.78;;;3.22;;
57217;SDS011;43078;52.972;6.482;2023-07-29T04:20:57;5.45;;;3.40;;
57217;SDS011;43078;52.972;6.482;2023-07-29T04:23:23;5.07;;;3.10;;
57217;SDS011;43078;52.972;6.482;2023-07-29T04:25:48;5.82;;;3.33;;
57217;SDS011;43078;52.972;6.482;2023-07-29T04:28:15;6.47;;;3.30;;
57217;SDS011;43078;52.972;6.482;2023-07-29T04:30:40;6.63;;;2.97;;
57217;SDS011;43078;52.972;6.482;2023-07-29T04:33:06;7.45;;;3.08;;
57217;SDS011;43078;52.972;6.482;2023-07-29T04:35:32;6.50;;;2.83;;
57217;SDS011;43078;52.972;6.482;2023-07-29T04:37:57;5.60;;;3.15;;
57217;SDS011;43078;52.972;6.482;2023-07-29T04:40:23;6.60;;;3.22;;
57217;SDS011;43078;52.972;6.482;2023-07-29T04:42:49;5.35;;;3.00;;
57217;SDS011;43078;52.972;6.482;2023-07-29T04:45:16;6.50;;;3.10;;
57217;SDS011;43078;52.972;6.482;2023-07-29T04:47:42;5.20;;;2.90;;
57217;SDS011;43078;52.972;6.482;2023-07-29T04:50:07;4.72;;;2.95;;
57217;SDS011;43078;52.972;6.482;2023-07-29T04:52:34;5.63;;;2.78;;
57217;SDS011;43078;52.972;6.482;2023-07-29T04:54:59;5.03;;;2.70;;
57217;SDS011;43078;52.972;6.482;2023-07-29T04:57:25;6.32;;;3.28;;
57217;SDS011;43078;52.972;6.482;2023-07-29T04:59:50;8.77;;;2.92;;
57217;SDS011;43078;52.972;6.482;2023-07-29T05:02:16;6.97;;;2.70;;
57217;SDS011;43078;52.972;6.482;2023-07-29T05:04:42;6.38;;;2.80;;
57217;SDS011;43078;52.972;6.482;2023-07-29T05:07:07;7.30;;;2.70;;
57217;SDS011;43078;52.972;6.482;2023-07-29T05:09:33;5.22;;;2.55;;
57217;SDS011;43078;52.972;6.482;2023-07-29T05:11:59;4.80;;;2.20;;
57217;SDS011;43078;52.972;6.482;2023-07-29T05:14:24;6.22;;;2.72;;
57217;SDS011;43078;52.972;6.482;2023-07-29T05:16:50;5.22;;;2.83;;
57217;SDS011;43078;52.972;6.482;2023-07-29T05:19:15;6.13;;;2.33;;
57217;SDS011;43078;52.972;6.482;2023-07-29T05:21:41;8.25;;;2.38;;
57217;SDS011;43078;52.972;6.482;2023-07-29T05:24:07;4.38;;;2.47;;
57217;SDS011;43078;52.972;6.482;2023-07-29T05:26:32;4.72;;;2.58;;
57217;SDS011;43078;52.972;6.482;2023-07-29T05:28:58;4.57;;;2.38;;
57217;SDS011;43078;52.972;6.482;2023-07-29T05:31:24;7.00;;;2.70;;
57217;SDS011;43078;52.972;6.482;2023-07-29T05:33:49;5.97;;;2.42;;
57217;SDS011;43078;52.972;6.482;2023-07-29T05:36:15;5.03;;;2.20;;
57217;SDS011;43078;52.972;6.482;2023-07-29T05:38:41;4.93;;;2.17;;
57217;SDS011;43078;52.972;6.482;2023-07-29T05:41:06;4.13;;;2.10;;
57217;SDS011;43078;52.972;6.482;2023-07-29T05:43:32;6.60;;;2.67;;
57217;SDS011;43078;52.972;6.482;2023-07-29T05:45:57;6.07;;;2.80;;
57217;SDS011;43078;52.972;6.482;2023-07-29T05:48:23;7.28;;;2.13;;
57217;SDS011;43078;52.972;6.482;2023-07-29T05:50:49;5.20;;;2.53;;
57217;SDS011;43078;52.972;6.482;2023-07-29T05:53:15;5.53;;;2.60;;
57217;SDS011;43078;52.972;6.482;2023-07-29T05:55:41;7.18;;;2.30;;
57217;SDS011;43078;52.972;6.482;2023-07-29T05:58:06;5.68;;;2.50;;
57217;SDS011;43078;52.972;6.482;2023-07-29T06:00:32;4.35;;;2.40;;
57217;SDS011;43078;52.972;6.482;2023-07-29T06:02:57;4.43;;;2.50;;
57217;SDS011;43078;52.972;6.482;2023-07-29T06:05:23;4.95;;;2.88;;
57217;SDS011;43078;52.972;6.482;2023-07-29T06:07:49;6.38;;;2.70;;
57217;SDS011;43078;52.972;6.482;2023-07-29T06:10:14;5.40;;;2.50;;
57217;SDS011;43078;52.972;6.482;2023-07-29T06:12:44;5.60;;;2.30;;
57217;SDS011;43078;52.972;6.482;2023-07-29T06:15:12;8.90;;;2.88;;
57217;SDS011;43078;52.972;6.482;2023-07-29T06:17:39;5.05;;;2.40;;
57217;SDS011;43078;52.972;6.482;2023-07-29T06:20:05;4.60;;;2.25;;
57217;SDS011;43078;52.972;6.482;2023-07-29T06:22:31;5.97;;;2.38;;
57217;SDS011;43078;52.972;6.482;2023-07-29T06:24:57;7.15;;;3.22;;
57217;SDS011;43078;52.972;6.482;2023-07-29T06:27:23;7.72;;;3.40;;
57217;SDS011;43078;52.972;6.482;2023-07-29T06:29:50;7.60;;;3.10;;
57217;SDS011;43078;52.972;6.482;2023-07-29T06:32:15;7.13;;;2.83;;
57217;SDS011;43078;52.972;6.482;2023-07-29T06:34:41;6.03;;;2.80;;
57217;SDS011;43078;52.972;6.482;2023-07-29T06:37:07;8.75;;;2.90;;
57217;SDS011;43078;52.972;6.482;2023-07-29T06:39:32;6.22;;;3.28;;
57217;SDS011;43078;52.972;6.482;2023-07-29T06:41:58;5.88;;;2.67;;
57217;SDS011;43078;52.972;6.482;2023-07-29T06:44:23;6.68;;;3.10;;
57217;SDS011;43078;52.972;6.482;2023-07-29T06:46:49;8.50;;;3.00;;
57217;SDS011;43078;52.972;6.482;2023-07-29T06:49:15;9.43;;;3.75;;
57217;SDS011;43078;52.972;6.482;2023-07-29T06:51:40;7.45;;;2.95;;
57217;SDS011;43078;52.972;6.482;2023-07-29T06:54:06;6.80;;;3.17;;
57217;SDS011;43078;52.972;6.482;2023-07-29T06:56:32;7.32;;;2.70;;
57217;SDS011;43078;52.972;6.482;2023-07-29T06:58:57;6.28;;;2.65;;
57217;SDS011;43078;52.972;6.482;2023-07-29T07:01:23;6.18;;;2.70;;
57217;SDS011;43078;52.972;6.482;2023-07-29T07:03:48;8.85;;;3.33;;
57217;SDS011;43078;52.972;6.482;2023-07-29T07:06:14;7.43;;;2.92;;
57217;SDS011;43078;52.972;6.482;2023-07-29T07:08:40;9.40;;;3.85;;
57217;SDS011;43078;52.972;6.482;2023-07-29T07:11:06;10.27;;;3.45;;
57217;SDS011;43078;52.972;6.482;2023-07-29T07:13:32;9.30;;;4.07;;
57217;SDS011;43078;52.972;6.482;2023-07-29T07:15:58;10.02;;;4.05;;
57217;SDS011;43078;52.972;6.482;2023-07-29T07:18:24;9.15;;;4.43;;
57217;SDS011;43078;52.972;6.482;2023-07-29T07:20:50;12.98;;;4.30;;
57217;SDS011;43078;52.972;6.482;2023-07-29T07:23:16;7.05;;;3.35;;
57217;SDS011;43078;52.972;6.482;2023-07-29T07:25:45;9.30;;;3.50;;
57217;SDS011;43078;52.972;6.482;2023-07-29T07:28:11;10.98;;;4.25;;
57217;SDS011;43078;52.972;6.482;2023-07-29T07:30:39;8.95;;;3.70;;
57217;SDS011;43078;52.972;6.482;2023-07-29T07:33:09;7.88;;;3.22;;
57217;SDS011;43078;52.972;6.482;2023-07-29T07:35:34;9.82;;;4.28;;
57217;SDS011;43078;52.972;6.482;2023-07-29T07:38:00;9.70;;;3.97;;
57217;SDS011;43078;52.972;6.482;2023-07-29T07:40:28;9.80;;;4.40;;
57217;SDS011;43078;52.972;6.482;2023-07-29T07:42:55;9.63;;;4.07;;
57217;SDS011;43078;52.972;6.482;2023-07-29T07:45:21;7.15;;;3.92;;
57217;SDS011;43078;52.972;6.482;2023-07-29T07:47:46;8.05;;;4.03;;
57217;SDS011;43078;52.972;6.482;2023-07-29T07:50:13;11.63;;;4.35;;
57217;SDS011;43078;52.972;6.482;2023-07-29T07:52:39;9.40;;;4.07;;
57217;SDS011;43078;52.972;6.482;2023-07-29T07:55:05;9.82;;;4.15;;
57217;SDS011;43078;52.972;6.482;2023-07-29T07:57:31;10.05;;;3.80;;
57217;SDS011;43078;52.972;6.482;2023-07-29T07:59:59;9.45;;;3.80;;
57217;SDS011;43078;52.972;6.482;2023-07-29T08:02:25;9.57;;;4.03;;
57217;SDS011;43078;52.972;6.482;2023-07-29T08:04:50;6.18;;;3.65;;
57217;SDS011;43078;52.972;6.482;2023-07-29T08:07:16;9.57;;;4.10;;
57217;SDS011;43078;52.972;6.482;2023-07-29T08:09:42;7.75;;;4.00;;
57217;SDS011;43078;52.972;6.482;2023-07-29T08:12:07;9.35;;;4.18;;
57217;SDS011;43078;52.972;6.482;2023-07-29T08:14:33;11.20;;;4.28;;
57217;SDS011;43078;52.972;6.482;2023-07-29T08:16:59;8.35;;;4.03;;
57217;SDS011;43078;52.972;6.482;2023-07-29T08:19:24;8.75;;;3.95;;
57217;SDS011;43078;52.972;6.482;2023-07-29T08:21:50;9.82;;;4.00;;
57217;SDS011;43078;52.972;6.482;2023-07-29T08:24:15;7.43;;;3.38;;
57217;SDS011;43078;52.972;6.482;2023-07-29T08:26:41;7.45;;;3.60;;
57217;SDS011;43078;52.972;6.482;2023-07-29T08:29:06;9.25;;;3.15;;
57217;SDS011;43078;52.972;6.482;2023-07-29T08:31:32;6.22;;;2.90;;
57217;SDS011;43078;52.972;6.482;2023-07-29T08:33:59;9.20;;;3.38;;
57217;SDS011;43078;52.972;6.482;2023-07-29T08:36:25;7.47;;;2.90;;
57217;SDS011;43078;52.972;6.482;2023-07-29T08:38:51;10.07;;;3.42;;
57217;SDS011;43078;52.972;6.482;2023-07-29T08:41:19;7.63;;;2.70;;
57217;SDS011;43078;52.972;6.482;2023-07-29T08:46:19;7.45;;;2.70;;
57217;SDS011;43078;52.972;6.482;2023-07-29T08:48:45;8.05;;;3.05;;
57217;SDS011;43078;52.972;6.482;2023-07-29T08:51:11;6.32;;;2.60;;
57217;SDS011;43078;52.972;6.482;2023-07-29T08:53:38;8.35;;;2.75;;
57217;SDS011;43078;52.972;6.482;2023-07-29T08:56:04;7.47;;;2.70;;
57217;SDS011;43078;52.972;6.482;2023-07-29T08:58:31;7.15;;;2.75;;
57217;SDS011;43078;52.972;6.482;2023-07-29T09:00:58;8.80;;;2.80;;
57217;SDS011;43078;52.972;6.482;2023-07-29T09:03:23;6.57;;;2.47;;
57217;SDS011;43078;52.972;6.482;2023-07-29T09:05:49;7.65;;;2.70;;
57217;SDS011;43078;52.972;6.482;2023-07-29T09:08:15;6.07;;;2.70;;
57217;SDS011;43078;52.972;6.482;2023-07-29T09:10:41;4.90;;;2.47;;
57217;SDS011;43078;52.972;6.482;2023-07-29T09:13:07;7.47;;;2.78;;
57217;SDS011;43078;52.972;6.482;2023-07-29T09:15:33;8.25;;;2.75;;
57217;SDS011;43078;52.972;6.482;2023-07-29T09:18:16;6.43;;;2.72;;
57217;SDS011;43078;52.972;6.482;2023-07-29T09:20:45;7.55;;;2.50;;
57217;SDS011;43078;52.972;6.482;2023-07-29T09:23:12;7.38;;;2.42;;
57217;SDS011;43078;52.972;6.482;2023-07-29T09:25:39;6.95;;;2.40;;
57217;SDS011;43078;52.972;6.482;2023-07-29T09:28:13;5.35;;;2.25;;
57217;SDS011;43078;52.972;6.482;2023-07-29T09:30:41;7.85;;;2.10;;
57217;SDS011;43078;52.972;6.482;2023-07-29T09:33:10;10.73;;;2.42;;
57217;SDS011;43078;52.972;6.482;2023-07-29T09:35:36;7.07;;;2.10;;
57217;SDS011;43078;52.972;6.482;2023-07-29T09:38:04;7.95;;;2.30;;
57217;SDS011;43078;52.972;6.482;2023-07-29T09:40:38;7.53;;;2.20;;
57217;SDS011;43078;52.972;6.482;2023-07-29T09:43:05;5.85;;;2.05;;
57217;SDS011;43078;52.972;6.482;2023-07-29T09:45:36;6.75;;;2.30;;
57217;SDS011;43078;52.972;6.482;2023-07-29T09:48:03;9.20;;;2.80;;
57217;SDS011;43078;52.972;6.482;2023-07-29T09:50:35;7.07;;;2.65;;
57217;SDS011;43078;52.972;6.482;2023-07-29T09:53:01;7.85;;;2.80;;
57217;SDS011;43078;52.972;6.482;2023-07-29T09:55:28;5.88;;;2.30;;
57217;SDS011;43078;52.972;6.482;2023-07-29T09:57:57;8.55;;;2.50;;
57217;SDS011;43078;52.972;6.482;2023-07-29T10:00:27;7.47;;;2.85;;
57217;SDS011;43078;52.972;6.482;2023-07-29T10:02:57;7.05;;;2.10;;
57217;SDS011;43078;52.972;6.482;2023-07-29T10:05:25;8.27;;;1.98;;
57217;SDS011;43078;52.972;6.482;2023-07-29T10:07:51;7.00;;;1.98;;
57217;SDS011;43078;52.972;6.482;2023-07-29T10:10:17;7.47;;;2.15;;
57217;SDS011;43078;52.972;6.482;2023-07-29T10:12:42;6.20;;;2.08;;
57217;SDS011;43078;52.972;6.482;2023-07-29T10:15:09;9.00;;;1.80;;
57217;SDS011;43078;52.972;6.482;2023-07-29T10:17:36;5.32;;;1.77;;
57217;SDS011;43078;52.972;6.482;2023-07-29T10:20:03;5.90;;;1.63;;
57217;SDS011;43078;52.972;6.482;2023-07-29T10:22:33;5.10;;;1.60;;
57217;SDS011;43078;52.972;6.482;2023-07-29T10:25:04;5.93;;;1.50;;
57217;SDS011;43078;52.972;6.482;2023-07-29T10:27:35;5.57;;;1.60;;
57217;SDS011;43078;52.972;6.482;2023-07-29T10:30:10;5.85;;;1.65;;
57217;SDS011;43078;52.972;6.482;2023-07-29T10:32:37;5.00;;;1.25;;
57217;SDS011;43078;52.972;6.482;2023-07-29T10:35:04;3.80;;;1.10;;
57217;SDS011;43078;52.972;6.482;2023-07-29T10:37:30;5.55;;;1.42;;
57217;SDS011;43078;52.972;6.482;2023-07-29T10:39:56;5.53;;;1.40;;
57217;SDS011;43078;52.972;6.482;2023-07-29T10:42:21;5.97;;;1.45;;
57217;SDS011;43078;52.972;6.482;2023-07-29T10:44:48;5.53;;;1.50;;
57217;SDS011;43078;52.972;6.482;2023-07-29T10:47:15;6.18;;;1.70;;
57217;SDS011;43078;52.972;6.482;2023-07-29T10:49:43;5.32;;;1.80;;
57217;SDS011;43078;52.972;6.482;2023-07-29T10:52:13;4.07;;;1.35;;
57217;SDS011;43078;52.972;6.482;2023-07-29T10:54:44;6.50;;;1.48;;
57217;SDS011;43078;52.972;6.482;2023-07-29T10:57:14;5.85;;;1.27;;
57217;SDS011;43078;52.972;6.482;2023-07-29T10:59:41;4.07;;;1.20;;
57217;SDS011;43078;52.972;6.482;2023-07-29T11:02:19;4.32;;;1.10;;
57217;SDS011;43078;52.972;6.482;2023-07-29T11:04:51;4.60;;;1.50;;
57217;SDS011;43078;52.972;6.482;2023-07-29T11:09:51;5.47;;;1.50;;
57217;SDS011;43078;52.972;6.482;2023-07-29T11:17:34;4.63;;;1.30;;
57217;SDS011;43078;52.972;6.482;2023-07-29T11:20:04;4.70;;;1.35;;
57217;SDS011;43078;52.972;6.482;2023-07-29T11:22:30;4.72;;;1.10;;
57217;SDS011;43078;52.972;6.482;2023-07-29T11:24:56;4.63;;;1.40;;
57217;SDS011;43078;52.972;6.482;2023-07-29T11:27:22;5.65;;;1.52;;
57217;SDS011;43078;52.972;6.482;2023-07-29T11:29:48;5.07;;;1.70;;
57217;SDS011;43078;52.972;6.482;2023-07-29T11:32:13;6.60;;;1.88;;
57217;SDS011;43078;52.972;6.482;2023-07-29T11:34:40;8.25;;;1.70;;
57217;SDS011;43078;52.972;6.482;2023-07-29T11:37:06;7.35;;;1.90;;
57217;SDS011;43078;52.972;6.482;2023-07-29T11:39:39;7.28;;;1.88;;
57217;SDS011;43078;52.972;6.482;2023-07-29T11:42:06;6.30;;;1.80;;
57217;SDS011;43078;52.972;6.482;2023-07-29T11:44:32;4.57;;;1.52;;
57217;SDS011;43078;52.972;6.482;2023-07-29T11:46:57;6.82;;;2.00;;
57217;SDS011;43078;52.972;6.482;2023-07-29T11:49:23;6.85;;;1.65;;
57217;SDS011;43078;52.972;6.482;2023-07-29T11:51:48;6.05;;;2.08;;
57217;SDS011;43078;52.972;6.482;2023-07-29T11:54:15;8.55;;;1.98;;
57217;SDS011;43078;52.972;6.482;2023-07-29T11:56:40;5.55;;;1.85;;
57217;SDS011;43078;52.972;6.482;2023-07-29T11:59:06;6.57;;;1.88;;
57217;SDS011;43078;52.972;6.482;2023-07-29T12:01:32;5.82;;;1.83;;
57217;SDS011;43078;52.972;6.482;2023-07-29T12:03:58;6.32;;;2.13;;
57217;SDS011;43078;52.972;6.482;2023-07-29T12:06:24;7.90;;;2.35;;
57217;SDS011;43078;52.972;6.482;2023-07-29T12:08:51;6.68;;;2.30;;
57217;SDS011;43078;52.972;6.482;2023-07-29T12:11:17;7.07;;;2.20;;
57217;SDS011;43078;52.972;6.482;2023-07-29T12:13:43;7.18;;;2.35;;
57217;SDS011;43078;52.972;6.482;2023-07-29T12:16:08;5.85;;;2.28;;
57217;SDS011;43078;52.972;6.482;2023-07-29T12:18:35;5.72;;;2.10;;
57217;SDS011;43078;52.972;6.482;2023-07-29T12:21:01;7.57;;;2.33;;
57217;SDS011;43078;52.972;6.482;2023-07-29T12:23:28;5.80;;;2.00;;
57217;SDS011;43078;52.972;6.482;2023-07-29T12:25:58;7.05;;;2.10;;
57217;SDS011;43078;52.972;6.482;2023-07-29T12:28:24;8.40;;;2.05;;
57217;SDS011;43078;52.972;6.482;2023-07-29T12:30:57;6.35;;;2.13;;
57217;SDS011;43078;52.972;6.482;2023-07-29T12:33:29;5.93;;;2.15;;
57217;SDS011;43078;52.972;6.482;2023-07-29T12:35:59;5.32;;;1.95;;
57217;SDS011;43078;52.972;6.482;2023-07-29T12:38:31;6.55;;;2.38;;
57217;SDS011;43078;52.972;6.482;2023-07-29T12:40:56;5.88;;;2.22;;
57217;SDS011;43078;52.972;6.482;2023-07-29T12:43:22;6.20;;;2.17;;
57217;SDS011;43078;52.972;6.482;2023-07-29T12:45:51;6.55;;;1.95;;
57217;SDS011;43078;52.972;6.482;2023-07-29T12:48:17;7.75;;;2.03;;
57217;SDS011;43078;52.972;6.482;2023-07-29T12:50:42;4.70;;;1.77;;
57217;SDS011;43078;52.972;6.482;2023-07-29T12:53:09;5.88;;;1.77;;
57217;SDS011;43078;52.972;6.482;2023-07-29T12:55:37;5.97;;;1.75;;
57217;SDS011;43078;52.972;6.482;2023-07-29T12:58:04;5.43;;;1.95;;
57217;SDS011;43078;52.972;6.482;2023-07-29T13:00:29;6.53;;;1.77;;
57217;SDS011;43078;52.972;6.482;2023-07-29T13:02:55;6.78;;;1.60;;
57217;SDS011;43078;52.972;6.482;2023-07-29T13:05:22;5.82;;;1.80;;
57217;SDS011;43078;52.972;6.482;2023-07-29T13:07:50;5.60;;;1.70;;
57217;SDS011;43078;52.972;6.482;2023-07-29T13:10:16;4.13;;;1.38;;
57217;SDS011;43078;52.972;6.482;2023-07-29T13:12:41;3.90;;;1.20;;
57217;SDS011;43078;52.972;6.482;2023-07-29T13:15:07;3.08;;;1.40;;
57217;SDS011;43078;52.972;6.482;2023-07-29T13:17:33;3.42;;;1.30;;
57217;SDS011;43078;52.972;6.482;2023-07-29T13:19:59;2.85;;;1.05;;
57217;SDS011;43078;52.972;6.482;2023-07-29T13:22:24;3.92;;;1.17;;
57217;SDS011;43078;52.972;6.482;2023-07-29T13:24:50;4.53;;;1.10;;
57217;SDS011;43078;52.972;6.482;2023-07-29T13:27:19;2.80;;;1.00;;
57217;SDS011;43078;52.972;6.482;2023-07-29T13:29:44;5.35;;;1.33;;
57217;SDS011;43078;52.972;6.482;2023-07-29T13:32:12;3.95;;;1.10;;
57217;SDS011;43078;52.972;6.482;2023-07-29T13:34:37;2.53;;;0.80;;
57217;SDS011;43078;52.972;6.482;2023-07-29T13:37:05;3.47;;;0.90;;
57217;SDS011;43078;52.972;6.482;2023-07-29T13:39:31;3.83;;;1.13;;
57217;SDS011;43078;52.972;6.482;2023-07-29T13:41:56;5.05;;;1.10;;
57217;SDS011;43078;52.972;6.482;2023-07-29T13:44:25;2.47;;;0.80;;
57217;SDS011;43078;52.972;6.482;2023-07-29T13:46:50;3.53;;;0.80;;
57217;SDS011;43078;52.972;6.482;2023-07-29T13:49:16;3.35;;;0.90;;
57217;SDS011;43078;52.972;6.482;2023-07-29T13:51:42;3.35;;;1.00;;
57217;SDS011;43078;52.972;6.482;2023-07-29T13:54:07;1.88;;;0.88;;
57217;SDS011;43078;52.972;6.482;2023-07-29T13:56:33;4.05;;;0.98;;
57217;SDS011;43078;52.972;6.482;2023-07-29T13:58:59;3.92;;;0.90;;
57217;SDS011;43078;52.972;6.482;2023-07-29T14:01:24;2.15;;;0.75;;
57217;SDS011;43078;52.972;6.482;2023-07-29T14:03:50;3.90;;;1.00;;
57217;SDS011;43078;52.972;6.482;2023-07-29T14:06:15;3.17;;;0.90;;
57217;SDS011;43078;52.972;6.482;2023-07-29T14:08:41;4.93;;;1.00;;
57217;SDS011;43078;52.972;6.482;2023-07-29T14:11:07;2.15;;;0.90;;
57217;SDS011;43078;52.972;6.482;2023-07-29T14:13:33;4.40;;;1.05;;
57217;SDS011;43078;52.972;6.482;2023-07-29T14:16:01;3.88;;;1.08;;
57217;SDS011;43078;52.972;6.482;2023-07-29T14:18:27;2.47;;;1.00;;
57217;SDS011;43078;52.972;6.482;2023-07-29T14:20:53;3.40;;;1.02;;
57217;SDS011;43078;52.972;6.482;2023-07-29T14:23:19;2.30;;;0.80;;
57217;SDS011;43078;52.972;6.482;2023-07-29T14:25:44;3.97;;;1.05;;
57217;SDS011;43078;52.972;6.482;2023-07-29T14:28:10;4.22;;;1.00;;
57217;SDS011;43078;52.972;6.482;2023-07-29T14:30:38;2.50;;;0.70;;
57217;SDS011;43078;52.972;6.482;2023-07-29T14:33:03;3.15;;;0.85;;
57217;SDS011;43078;52.972;6.482;2023-07-29T14:35:29;3.53;;;0.80;;
57217;SDS011;43078;52.972;6.482;2023-07-29T14:37:55;3.05;;;0.98;;
57217;SDS011;43078;52.972;6.482;2023-07-29T14:40:21;3.97;;;1.00;;
57217;SDS011;43078;52.972;6.482;2023-07-29T14:42:46;5.43;;;0.95;;
57217;SDS011;43078;52.972;6.482;2023-07-29T14:45:12;2.88;;;0.85;;
57217;SDS011;43078;52.972;6.482;2023-07-29T14:47:37;2.78;;;0.98;;
57217;SDS011;43078;52.972;6.482;2023-07-29T14:50:03;3.88;;;0.70;;
57217;SDS011;43078;52.972;6.482;2023-07-29T14:52:29;3.58;;;0.80;;
57217;SDS011;43078;52.972;6.482;2023-07-29T14:54:55;4.55;;;0.80;;
57217;SDS011;43078;52.972;6.482;2023-07-29T14:57:20;2.03;;;0.80;;
57217;SDS011;43078;52.972;6.482;2023-07-29T14:59:46;4.20;;;0.90;;
57217;SDS011;43078;52.972;6.482;2023-07-29T15:02:12;1.75;;;0.73;;